sensor_id;sensor_type;location;lat;lon;timestamp;pressure;altitude;pressure_sealevel;temperature;humidity
6615;BME280;3343;42.896;23.912;2022-12-20T00:01:08;98520.94;;;1.53;90.44
6615;BME280;3343;42.896;23.912;2022-12-20T00:03:35;98516.75;;;1.66;89.68
6615;BME280;3343;42.896;23.912;2022-12-20T00:06:04;98509.97;;;1.48;90.28
6615;BME280;3343;42.896;23.912;2022-12-20T00:08:31;98516.00;;;1.48;90.23
6615;BME280;3343;42.896;23.912;2022-12-20T00:11:00;98517.00;;;1.62;89.90
6615;BME280;3343;42.896;23.912;2022-12-20T00:13:28;98523.44;;;1.39;90.77
6615;BME280;3343;42.896;23.912;2022-12-20T00:16:03;98502.09;;;1.34;90.41
6615;BME280;3343;42.896;23.912;2022-12-20T00:18:30;98532.56;;;1.46;89.75
6615;BME280;3343;42.896;23.912;2022-12-20T00:20:57;98529.88;;;1.32;90.76
6615;BME280;3343;42.896;23.912;2022-12-20T00:23:26;98527.63;;;1.41;90.72
6615;BME280;3343;42.896;23.912;2022-12-20T00:25:59;98520.44;;;1.46;90.09
6615;BME280;3343;42.896;23.912;2022-12-20T00:28:26;98524.28;;;1.55;89.18
6615;BME280;3343;42.896;23.912;2022-12-20T00:30:53;98524.47;;;1.68;88.50
6615;BME280;3343;42.896;23.912;2022-12-20T00:33:20;98530.31;;;1.71;88.23
6615;BME280;3343;42.896;23.912;2022-12-20T00:35:47;98532.81;;;1.41;88.84
6615;BME280;3343;42.896;23.912;2022-12-20T00:38:14;98508.00;;;1.20;89.66
6615;BME280;3343;42.896;23.912;2022-12-20T00:40:42;98526.28;;;1.50;89.68
6615;BME280;3343;42.896;23.912;2022-12-20T00:43:09;98527.44;;;1.28;89.92
6615;BME280;3343;42.896;23.912;2022-12-20T00:45:36;98518.03;;;1.10;90.41
6615;BME280;3343;42.896;23.912;2022-12-20T00:48:04;98524.75;;;1.14;91.02
6615;BME280;3343;42.896;23.912;2022-12-20T00:50:31;98527.16;;;1.17;90.98
6615;BME280;3343;42.896;23.912;2022-12-20T00:52:58;98525.09;;;1.24;90.14
6615;BME280;3343;42.896;23.912;2022-12-20T00:55:25;98517.19;;;1.10;90.60
6615;BME280;3343;42.896;23.912;2022-12-20T00:57:53;98509.56;;;1.07;91.11
6615;BME280;3343;42.896;23.912;2022-12-20T01:00:20;98511.38;;;1.22;90.42
6615;BME280;3343;42.896;23.912;2022-12-20T01:02:47;98513.63;;;1.28;89.91
6615;BME280;3343;42.896;23.912;2022-12-20T01:05:14;98506.53;;;1.47;89.23
6615;BME280;3343;42.896;23.912;2022-12-20T01:07:41;98510.50;;;1.86;86.98
6615;BME280;3343;42.896;23.912;2022-12-20T01:10:09;98507.47;;;1.94;86.55
6615;BME280;3343;42.896;23.912;2022-12-20T01:12:36;98495.75;;;2.02;85.18
6615;BME280;3343;42.896;23.912;2022-12-20T01:15:05;98498.88;;;2.23;84.26
6615;BME280;3343;42.896;23.912;2022-12-20T01:17:33;98502.50;;;2.20;83.85
6615;BME280;3343;42.896;23.912;2022-12-20T01:20:00;98494.97;;;2.16;83.66
6615;BME280;3343;42.896;23.912;2022-12-20T01:22:27;98492.91;;;1.59;85.85
6615;BME280;3343;42.896;23.912;2022-12-20T01:24:53;98491.81;;;1.48;86.51
6615;BME280;3343;42.896;23.912;2022-12-20T01:27:20;98492.56;;;1.34;87.20
6615;BME280;3343;42.896;23.912;2022-12-20T01:29:47;98478.91;;;0.64;91.17
6615;BME280;3343;42.896;23.912;2022-12-20T01:32:16;98483.75;;;0.20;94.58
6615;BME280;3343;42.896;23.912;2022-12-20T01:34:43;98484.84;;;-0.03;95.51
6615;BME280;3343;42.896;23.912;2022-12-20T01:37:09;98483.44;;;0.26;95.09
6615;BME280;3343;42.896;23.912;2022-12-20T01:39:36;98475.44;;;0.31;95.03
6615;BME280;3343;42.896;23.912;2022-12-20T01:42:04;98476.28;;;0.14;95.35
6615;BME280;3343;42.896;23.912;2022-12-20T01:44:51;98467.97;;;0.42;94.42
6615;BME280;3343;42.896;23.912;2022-12-20T01:47:21;98470.88;;;0.36;94.62
6615;BME280;3343;42.896;23.912;2022-12-20T01:49:51;98453.81;;;0.32;94.87
6615;BME280;3343;42.896;23.912;2022-12-20T01:52:24;98450.22;;;0.35;94.47
6615;BME280;3343;42.896;23.912;2022-12-20T01:54:55;98452.31;;;0.61;93.01
6615;BME280;3343;42.896;23.912;2022-12-20T01:57:30;98451.84;;;0.87;91.89
6615;BME280;3343;42.896;23.912;2022-12-20T01:59:59;98450.28;;;0.83;90.97
6615;BME280;3343;42.896;23.912;2022-12-20T02:02:28;98450.31;;;0.66;91.60
6615;BME280;3343;42.896;23.912;2022-12-20T02:04:55;98449.66;;;0.62;91.27
6615;BME280;3343;42.896;23.912;2022-12-20T02:07:24;98452.25;;;0.62;91.24
6615;BME280;3343;42.896;23.912;2022-12-20T02:09:54;98426.22;;;0.48;91.41
6615;BME280;3343;42.896;23.912;2022-12-20T02:12:23;98442.63;;;0.64;91.42
6615;BME280;3343;42.896;23.912;2022-12-20T02:15:03;98444.28;;;0.83;90.97
6615;BME280;3343;42.896;23.912;2022-12-20T02:17:42;98441.78;;;0.64;91.09
6615;BME280;3343;42.896;23.912;2022-12-20T02:23:31;98438.78;;;0.39;92.47
6615;BME280;3343;42.896;23.912;2022-12-20T02:26:18;98432.31;;;0.30;92.62
6615;BME280;3343;42.896;23.912;2022-12-20T02:29:05;98432.81;;;0.54;91.75
6615;BME280;3343;42.896;23.912;2022-12-20T02:31:41;98422.09;;;0.44;92.52
6615;BME280;3343;42.896;23.912;2022-12-20T02:34:10;98420.06;;;0.67;91.40
6615;BME280;3343;42.896;23.912;2022-12-20T02:36:38;98421.66;;;0.36;92.17
6615;BME280;3343;42.896;23.912;2022-12-20T02:39:05;98426.06;;;0.34;91.96
6615;BME280;3343;42.896;23.912;2022-12-20T02:41:35;98428.28;;;0.24;93.32
6615;BME280;3343;42.896;23.912;2022-12-20T02:44:07;98414.75;;;0.19;94.19
6615;BME280;3343;42.896;23.912;2022-12-20T02:46:55;98410.72;;;0.64;92.62
6615;BME280;3343;42.896;23.912;2022-12-20T02:49:26;98407.22;;;0.81;92.13
6615;BME280;3343;42.896;23.912;2022-12-20T02:51:55;98412.41;;;0.81;91.41
6615;BME280;3343;42.896;23.912;2022-12-20T02:54:23;98418.00;;;1.06;90.76
6615;BME280;3343;42.896;23.912;2022-12-20T02:56:54;98408.16;;;0.80;91.14
6615;BME280;3343;42.896;23.912;2022-12-20T02:59:25;98413.47;;;0.94;90.62
6615;BME280;3343;42.896;23.912;2022-12-20T03:01:56;98389.00;;;0.82;90.54
6615;BME280;3343;42.896;23.912;2022-12-20T03:04:25;98406.22;;;0.83;90.57
6615;BME280;3343;42.896;23.912;2022-12-20T03:06:58;98402.03;;;0.81;90.56
6615;BME280;3343;42.896;23.912;2022-12-20T03:09:25;98407.38;;;0.78;90.41
6615;BME280;3343;42.896;23.912;2022-12-20T03:11:52;98396.91;;;0.63;90.92
6615;BME280;3343;42.896;23.912;2022-12-20T03:14:19;98409.03;;;0.96;89.53
6615;BME280;3343;42.896;23.912;2022-12-20T03:16:46;98405.69;;;1.10;88.64
6615;BME280;3343;42.896;23.912;2022-12-20T03:19:15;98411.19;;;0.88;89.87
6615;BME280;3343;42.896;23.912;2022-12-20T03:21:42;98408.28;;;0.61;90.47
6615;BME280;3343;42.896;23.912;2022-12-20T03:24:09;98411.63;;;0.63;90.84
6615;BME280;3343;42.896;23.912;2022-12-20T03:26:38;98416.94;;;0.27;92.85
6615;BME280;3343;42.896;23.912;2022-12-20T03:29:05;98415.56;;;0.37;93.20
6615;BME280;3343;42.896;23.912;2022-12-20T03:31:32;98413.00;;;0.53;92.37
6615;BME280;3343;42.896;23.912;2022-12-20T03:33:59;98410.47;;;0.18;93.71
6615;BME280;3343;42.896;23.912;2022-12-20T03:36:27;98416.31;;;0.39;93.67
6615;BME280;3343;42.896;23.912;2022-12-20T03:38:55;98417.38;;;0.35;92.73
6615;BME280;3343;42.896;23.912;2022-12-20T03:41:22;98421.13;;;0.29;93.31
6615;BME280;3343;42.896;23.912;2022-12-20T03:43:49;98428.34;;;0.40;93.29
6615;BME280;3343;42.896;23.912;2022-12-20T03:46:16;98421.72;;;0.35;93.65
6615;BME280;3343;42.896;23.912;2022-12-20T03:48:43;98416.97;;;0.10;94.37
6615;BME280;3343;42.896;23.912;2022-12-20T03:51:10;98414.19;;;-0.05;95.71
6615;BME280;3343;42.896;23.912;2022-12-20T03:53:38;98422.72;;;-0.03;96.30
6615;BME280;3343;42.896;23.912;2022-12-20T03:56:06;98419.81;;;0.38;94.26
6615;BME280;3343;42.896;23.912;2022-12-20T03:58:33;98412.06;;;0.38;93.24
6615;BME280;3343;42.896;23.912;2022-12-20T04:00:59;98408.66;;;0.20;94.49
6615;BME280;3343;42.896;23.912;2022-12-20T04:03:26;98407.72;;;0.39;93.45
6615;BME280;3343;42.896;23.912;2022-12-20T04:05:53;98390.69;;;0.50;92.66
6615;BME280;3343;42.896;23.912;2022-12-20T04:08:20;98403.84;;;0.30;93.60
6615;BME280;3343;42.896;23.912;2022-12-20T04:10:48;98400.03;;;0.20;94.95
6615;BME280;3343;42.896;23.912;2022-12-20T04:13:33;98390.16;;;0.11;95.29
6615;BME280;3343;42.896;23.912;2022-12-20T04:15:59;98383.19;;;0.28;94.41
6615;BME280;3343;42.896;23.912;2022-12-20T04:18:26;98394.38;;;-0.06;95.83
6615;BME280;3343;42.896;23.912;2022-12-20T04:20:53;98390.44;;;0.22;95.30
6615;BME280;3343;42.896;23.912;2022-12-20T04:23:20;98388.47;;;0.10;95.80
6615;BME280;3343;42.896;23.912;2022-12-20T04:25:48;98387.09;;;-0.15;97.88
6615;BME280;3343;42.896;23.912;2022-12-20T04:28:15;98369.13;;;-0.18;97.18
6615;BME280;3343;42.896;23.912;2022-12-20T04:30:42;98378.56;;;-0.34;98.25
6615;BME280;3343;42.896;23.912;2022-12-20T04:33:09;98381.06;;;-0.33;98.80
6615;BME280;3343;42.896;23.912;2022-12-20T04:35:36;98389.53;;;0.23;96.86
6615;BME280;3343;42.896;23.912;2022-12-20T04:38:03;98384.03;;;-0.06;98.35
6615;BME280;3343;42.896;23.912;2022-12-20T04:40:30;98386.03;;;0.07;98.11
6615;BME280;3343;42.896;23.912;2022-12-20T04:42:58;98385.84;;;0.44;96.66
6615;BME280;3343;42.896;23.912;2022-12-20T04:45:25;98378.56;;;0.18;96.68
6615;BME280;3343;42.896;23.912;2022-12-20T04:47:52;98369.28;;;0.14;97.76
6615;BME280;3343;42.896;23.912;2022-12-20T04:50:19;98373.69;;;-0.06;97.82
6615;BME280;3343;42.896;23.912;2022-12-20T04:52:46;98367.25;;;0.03;97.95
6615;BME280;3343;42.896;23.912;2022-12-20T04:55:32;98381.25;;;0.16;97.43
6615;BME280;3343;42.896;23.912;2022-12-20T04:58:03;98368.44;;;0.13;97.60
6615;BME280;3343;42.896;23.912;2022-12-20T05:00:30;98364.72;;;0.02;97.25
6615;BME280;3343;42.896;23.912;2022-12-20T05:02:57;98368.66;;;-0.09;97.88
6615;BME280;3343;42.896;23.912;2022-12-20T05:05:24;98357.94;;;-0.01;97.20
6615;BME280;3343;42.896;23.912;2022-12-20T05:07:51;98353.06;;;0.10;96.97
6615;BME280;3343;42.896;23.912;2022-12-20T05:10:18;98354.06;;;-0.27;97.53
6615;BME280;3343;42.896;23.912;2022-12-20T05:12:45;98330.78;;;-0.44;98.93
6615;BME280;3343;42.896;23.912;2022-12-20T05:15:14;98348.66;;;-0.22;99.18
6615;BME280;3343;42.896;23.912;2022-12-20T05:17:41;98348.13;;;-0.12;98.13
6615;BME280;3343;42.896;23.912;2022-12-20T05:20:08;98350.88;;;0.03;97.88
6615;BME280;3343;42.896;23.912;2022-12-20T05:22:35;98345.38;;;0.09;96.47
6615;BME280;3343;42.896;23.912;2022-12-20T05:25:20;98351.00;;;-0.01;97.09
6615;BME280;3343;42.896;23.912;2022-12-20T05:28:04;98357.56;;;0.07;96.99
6615;BME280;3343;42.896;23.912;2022-12-20T05:30:32;98353.25;;;0.40;95.91
6615;BME280;3343;42.896;23.912;2022-12-20T05:32:59;98356.94;;;0.19;95.62
6615;BME280;3343;42.896;23.912;2022-12-20T05:35:26;98353.97;;;0.26;95.33
6615;BME280;3343;42.896;23.912;2022-12-20T05:37:53;98354.84;;;0.43;95.80
6615;BME280;3343;42.896;23.912;2022-12-20T05:40:20;98351.66;;;0.38;94.96
6615;BME280;3343;42.896;23.912;2022-12-20T05:42:47;98352.88;;;0.63;93.71
6615;BME280;3343;42.896;23.912;2022-12-20T05:45:13;98353.78;;;0.62;93.37
6615;BME280;3343;42.896;23.912;2022-12-20T05:47:42;98361.94;;;0.88;93.29
6615;BME280;3343;42.896;23.912;2022-12-20T05:50:09;98363.22;;;0.97;92.83
6615;BME280;3343;42.896;23.912;2022-12-20T05:52:36;98355.34;;;0.98;92.64
6615;BME280;3343;42.896;23.912;2022-12-20T05:55:03;98358.59;;;1.17;91.74
6615;BME280;3343;42.896;23.912;2022-12-20T05:57:31;98360.19;;;1.04;91.44
6615;BME280;3343;42.896;23.912;2022-12-20T05:59:58;98359.53;;;1.16;91.21
6615;BME280;3343;42.896;23.912;2022-12-20T06:02:25;98361.53;;;1.11;90.23
6615;BME280;3343;42.896;23.912;2022-12-20T06:04:53;98363.63;;;1.20;90.05
6615;BME280;3343;42.896;23.912;2022-12-20T06:07:20;98367.38;;;1.31;89.55
6615;BME280;3343;42.896;23.912;2022-12-20T06:09:47;98364.88;;;0.98;89.12
6615;BME280;3343;42.896;23.912;2022-12-20T06:12:14;98357.22;;;0.63;90.38
6615;BME280;3343;42.896;23.912;2022-12-20T06:14:40;98362.16;;;0.35;92.01
6615;BME280;3343;42.896;23.912;2022-12-20T06:17:07;98361.28;;;0.18;92.94
6615;BME280;3343;42.896;23.912;2022-12-20T06:19:36;98377.19;;;0.28;93.53
6615;BME280;3343;42.896;23.912;2022-12-20T06:22:05;98385.09;;;0.25;94.00
6615;BME280;3343;42.896;23.912;2022-12-20T06:24:33;98373.88;;;0.09;94.23
6615;BME280;3343;42.896;23.912;2022-12-20T06:27:00;98375.06;;;-0.16;95.88
6615;BME280;3343;42.896;23.912;2022-12-20T06:29:27;98381.22;;;-0.01;95.33
6615;BME280;3343;42.896;23.912;2022-12-20T06:31:55;98369.50;;;0.26;94.44
6615;BME280;3343;42.896;23.912;2022-12-20T06:34:22;98365.66;;;0.01;94.66
6615;BME280;3343;42.896;23.912;2022-12-20T06:36:48;98367.09;;;0.06;94.17
6615;BME280;3343;42.896;23.912;2022-12-20T06:39:17;98365.03;;;0.13;93.47
6615;BME280;3343;42.896;23.912;2022-12-20T06:41:43;98362.16;;;0.02;93.78
6615;BME280;3343;42.896;23.912;2022-12-20T06:44:10;98357.53;;;0.24;93.57
6615;BME280;3343;42.896;23.912;2022-12-20T06:46:37;98352.91;;;0.13;93.74
6615;BME280;3343;42.896;23.912;2022-12-20T06:49:04;98345.91;;;0.15;93.99
6615;BME280;3343;42.896;23.912;2022-12-20T06:51:31;98352.16;;;0.11;94.21
6615;BME280;3343;42.896;23.912;2022-12-20T06:53:58;98347.59;;;0.16;94.49
6615;BME280;3343;42.896;23.912;2022-12-20T06:56:26;98353.44;;;0.20;94.44
6615;BME280;3343;42.896;23.912;2022-12-20T06:58:52;98337.69;;;0.40;94.01
6615;BME280;3343;42.896;23.912;2022-12-20T07:01:19;98344.34;;;0.61;93.05
6615;BME280;3343;42.896;23.912;2022-12-20T07:03:46;98340.50;;;0.84;92.08
6615;BME280;3343;42.896;23.912;2022-12-20T07:06:13;98339.69;;;0.84;91.95
6615;BME280;3343;42.896;23.912;2022-12-20T07:08:40;98335.88;;;0.91;90.97
6615;BME280;3343;42.896;23.912;2022-12-20T07:11:07;98332.34;;;0.92;91.04
6615;BME280;3343;42.896;23.912;2022-12-20T07:13:35;98330.97;;;0.85;90.96
6615;BME280;3343;42.896;23.912;2022-12-20T07:16:03;98341.88;;;0.91;91.43
6615;BME280;3343;42.896;23.912;2022-12-20T07:18:30;98333.69;;;1.15;90.92
6615;BME280;3343;42.896;23.912;2022-12-20T07:20:58;98331.00;;;1.01;90.92
6615;BME280;3343;42.896;23.912;2022-12-20T10:18:23;98126.72;;;4.51;77.57
6615;BME280;3343;42.896;23.912;2022-12-20T10:20:56;98121.16;;;5.15;72.31
6615;BME280;3343;42.896;23.912;2022-12-20T10:23:31;98109.75;;;5.62;69.27
6615;BME280;3343;42.896;23.912;2022-12-20T10:25:59;98104.28;;;5.98;68.21
6615;BME280;3343;42.896;23.912;2022-12-20T10:28:28;98093.63;;;6.56;64.48
6615;BME280;3343;42.896;23.912;2022-12-20T10:30:58;98089.25;;;7.60;58.32
6615;BME280;3343;42.896;23.912;2022-12-20T10:33:31;98089.34;;;7.80;56.58
6615;BME280;3343;42.896;23.912;2022-12-20T10:36:20;98076.06;;;8.02;54.55
6615;BME280;3343;42.896;23.912;2022-12-20T10:38:49;98065.50;;;7.52;57.46
6615;BME280;3343;42.896;23.912;2022-12-20T10:41:18;98057.69;;;7.11;56.25
6615;BME280;3343;42.896;23.912;2022-12-20T10:43:48;98058.84;;;7.18;58.88
6615;BME280;3343;42.896;23.912;2022-12-20T10:46:18;98054.94;;;7.33;58.39
6615;BME280;3343;42.896;23.912;2022-12-20T10:48:47;98053.94;;;7.85;56.34
6615;BME280;3343;42.896;23.912;2022-12-20T10:51:17;98044.56;;;7.62;58.02
6615;BME280;3343;42.896;23.912;2022-12-20T10:53:54;98039.31;;;8.42;53.55
6615;BME280;3343;42.896;23.912;2022-12-20T10:56:24;98035.66;;;8.24;54.09
6615;BME280;3343;42.896;23.912;2022-12-20T10:58:56;98030.47;;;8.34;52.61
6615;BME280;3343;42.896;23.912;2022-12-20T11:01:26;98030.50;;;8.72;50.85
6615;BME280;3343;42.896;23.912;2022-12-20T11:03:58;98031.00;;;8.37;52.18
6615;BME280;3343;42.896;23.912;2022-12-20T11:06:28;98029.06;;;7.80;54.31
6615;BME280;3343;42.896;23.912;2022-12-20T11:09:23;98024.25;;;7.45;55.22
6615;BME280;3343;42.896;23.912;2022-12-20T11:12:02;98014.97;;;7.71;54.29
6615;BME280;3343;42.896;23.912;2022-12-20T11:14:32;98018.09;;;8.05;52.87
6615;BME280;3343;42.896;23.912;2022-12-20T11:17:03;98010.53;;;8.12;51.35
6615;BME280;3343;42.896;23.912;2022-12-20T11:19:51;97999.63;;;8.16;51.31
6615;BME280;3343;42.896;23.912;2022-12-20T11:22:36;97996.06;;;8.66;50.62
6615;BME280;3343;42.896;23.912;2022-12-20T11:25:27;98001.59;;;8.91;48.72
6615;BME280;3343;42.896;23.912;2022-12-20T11:28:12;97988.03;;;8.96;49.35
6615;BME280;3343;42.896;23.912;2022-12-20T11:30:52;97983.44;;;9.54;49.69
6615;BME280;3343;42.896;23.912;2022-12-20T11:33:47;97988.06;;;9.33;49.64
6615;BME280;3343;42.896;23.912;2022-12-20T11:36:27;97985.72;;;9.30;49.76
6615;BME280;3343;42.896;23.912;2022-12-20T11:39:04;97989.47;;;9.27;48.64
6615;BME280;3343;42.896;23.912;2022-12-20T11:41:43;97985.94;;;9.09;48.88
6615;BME280;3343;42.896;23.912;2022-12-20T11:44:20;97982.13;;;8.46;50.63
6615;BME280;3343;42.896;23.912;2022-12-20T11:46:59;97976.47;;;8.50;49.55
6615;BME280;3343;42.896;23.912;2022-12-20T11:49:52;97966.41;;;8.46;48.43
6615;BME280;3343;42.896;23.912;2022-12-20T11:52:33;97958.63;;;8.63;48.90
6615;BME280;3343;42.896;23.912;2022-12-20T11:55:06;97956.03;;;9.20;47.76
6615;BME280;3343;42.896;23.912;2022-12-20T11:57:44;97965.78;;;9.00;49.44
6615;BME280;3343;42.896;23.912;2022-12-20T12:00:13;97959.06;;;8.40;52.67
6615;BME280;3343;42.896;23.912;2022-12-20T12:02:43;97956.72;;;8.75;51.85
6615;BME280;3343;42.896;23.912;2022-12-20T12:05:17;97961.53;;;8.89;51.60
6615;BME280;3343;42.896;23.912;2022-12-20T12:07:52;97966.59;;;9.01;51.07
6615;BME280;3343;42.896;23.912;2022-12-20T12:10:23;97953.09;;;8.67;52.11
6615;BME280;3343;42.896;23.912;2022-12-20T12:12:56;97949.81;;;8.55;52.29
6615;BME280;3343;42.896;23.912;2022-12-20T12:15:30;97959.97;;;8.97;51.68
6615;BME280;3343;42.896;23.912;2022-12-20T12:18:02;97959.34;;;8.75;52.94
6615;BME280;3343;42.896;23.912;2022-12-20T12:20:38;97947.75;;;8.68;52.91
6615;BME280;3343;42.896;23.912;2022-12-20T12:23:13;97941.22;;;8.82;53.22
6615;BME280;3343;42.896;23.912;2022-12-20T12:25:42;97950.78;;;8.54;54.95
6615;BME280;3343;42.896;23.912;2022-12-20T12:28:11;97957.28;;;8.50;55.16
6615;BME280;3343;42.896;23.912;2022-12-20T12:30:44;97952.66;;;8.90;54.63
6615;BME280;3343;42.896;23.912;2022-12-20T12:33:15;97942.06;;;8.53;55.98
6615;BME280;3343;42.896;23.912;2022-12-20T12:35:54;97934.19;;;7.86;60.08
6615;BME280;3343;42.896;23.912;2022-12-20T12:39:02;97942.91;;;8.15;59.23
6615;BME280;3343;42.896;23.912;2022-12-20T12:41:58;97938.06;;;8.11;59.79
6615;BME280;3343;42.896;23.912;2022-12-20T12:44:39;97946.75;;;7.42;63.08
6615;BME280;3343;42.896;23.912;2022-12-20T12:47:12;97950.38;;;7.51;63.86
6615;BME280;3343;42.896;23.912;2022-12-20T12:49:42;97956.34;;;7.22;65.87
6615;BME280;3343;42.896;23.912;2022-12-20T12:52:35;97953.19;;;7.28;65.39
6615;BME280;3343;42.896;23.912;2022-12-20T12:55:35;97950.38;;;7.51;64.22
6615;BME280;3343;42.896;23.912;2022-12-20T12:58:30;97949.94;;;7.46;64.31
6615;BME280;3343;42.896;23.912;2022-12-20T13:00:59;97949.22;;;7.34;65.35
6615;BME280;3343;42.896;23.912;2022-12-20T13:03:41;97949.53;;;7.10;65.25
6615;BME280;3343;42.896;23.912;2022-12-20T13:09:39;97943.34;;;7.11;66.55
6615;BME280;3343;42.896;23.912;2022-12-20T13:18:25;97947.06;;;6.67;64.13
6615;BME280;3343;42.896;23.912;2022-12-20T13:21:29;97933.22;;;6.34;65.85
6615;BME280;3343;42.896;23.912;2022-12-20T13:27:15;97921.41;;;5.22;72.22
6615;BME280;3343;42.896;23.912;2022-12-20T13:36:00;97930.88;;;3.49;83.17
6615;BME280;3343;42.896;23.912;2022-12-20T13:38:58;97921.47;;;3.59;83.08
6615;BME280;3343;42.896;23.912;2022-12-20T13:41:32;97926.28;;;4.00;81.50
6615;BME280;3343;42.896;23.912;2022-12-20T13:44:09;97924.25;;;3.93;81.68
6615;BME280;3343;42.896;23.912;2022-12-20T13:46:47;97921.19;;;3.51;83.49
6615;BME280;3343;42.896;23.912;2022-12-20T13:49:22;97923.06;;;3.97;81.39
6615;BME280;3343;42.896;23.912;2022-12-20T13:52:06;97917.75;;;3.74;81.54
6615;BME280;3343;42.896;23.912;2022-12-20T13:54:40;97919.09;;;3.56;82.61
6615;BME280;3343;42.896;23.912;2022-12-20T13:57:10;97919.09;;;3.43;82.36
6615;BME280;3343;42.896;23.912;2022-12-20T13:59:39;97919.81;;;3.09;84.37
6615;BME280;3343;42.896;23.912;2022-12-20T14:02:18;97917.31;;;3.20;84.65
6615;BME280;3343;42.896;23.912;2022-12-20T14:04:54;97907.41;;;3.25;84.16
6615;BME280;3343;42.896;23.912;2022-12-20T14:07:25;97907.72;;;3.20;84.05
6615;BME280;3343;42.896;23.912;2022-12-20T14:09:56;97901.34;;;2.88;85.56
6615;BME280;3343;42.896;23.912;2022-12-20T14:12:23;97902.41;;;2.73;85.51
6615;BME280;3343;42.896;23.912;2022-12-20T14:14:50;97887.84;;;2.58;86.72
6615;BME280;3343;42.896;23.912;2022-12-20T14:17:22;97897.28;;;2.97;86.01
6615;BME280;3343;42.896;23.912;2022-12-20T14:20:03;97896.78;;;2.66;87.10
6615;BME280;3343;42.896;23.912;2022-12-20T14:22:32;97893.97;;;2.56;88.00
6615;BME280;3343;42.896;23.912;2022-12-20T14:25:01;97895.94;;;2.53;88.33
6615;BME280;3343;42.896;23.912;2022-12-20T14:27:34;97883.88;;;2.52;88.03
6615;BME280;3343;42.896;23.912;2022-12-20T14:30:01;97889.38;;;2.22;88.68
6615;BME280;3343;42.896;23.912;2022-12-20T14:32:28;97888.66;;;2.58;87.62
6615;BME280;3343;42.896;23.912;2022-12-20T14:34:56;97889.59;;;2.44;88.22
6615;BME280;3343;42.896;23.912;2022-12-20T14:37:29;97884.94;;;2.62;87.46
6615;BME280;3343;42.896;23.912;2022-12-20T14:40:01;97873.56;;;2.00;90.18
6615;BME280;3343;42.896;23.912;2022-12-20T14:42:32;97873.16;;;2.06;90.83
6615;BME280;3343;42.896;23.912;2022-12-20T14:45:04;97877.41;;;1.94;91.16
6615;BME280;3343;42.896;23.912;2022-12-20T14:47:32;97866.19;;;1.94;90.63
6615;BME280;3343;42.896;23.912;2022-12-20T14:50:01;97870.75;;;1.63;92.46
6615;BME280;3343;42.896;23.912;2022-12-20T14:52:33;97854.03;;;1.94;91.06
6615;BME280;3343;42.896;23.912;2022-12-20T14:55:06;97866.38;;;1.90;91.19
6615;BME280;3343;42.896;23.912;2022-12-20T14:57:42;97864.81;;;1.75;91.42
6615;BME280;3343;42.896;23.912;2022-12-20T15:00:14;97861.19;;;1.51;92.96
6615;BME280;3343;42.896;23.912;2022-12-20T15:02:45;97864.94;;;1.86;91.99
6615;BME280;3343;42.896;23.912;2022-12-20T15:05:35;97863.25;;;1.85;91.82
6615;BME280;3343;42.896;23.912;2022-12-20T15:08:10;97859.88;;;1.71;92.10
6615;BME280;3343;42.896;23.912;2022-12-20T15:10:39;97854.63;;;1.45;93.59
6615;BME280;3343;42.896;23.912;2022-12-20T15:13:12;97860.63;;;1.46;94.04
6615;BME280;3343;42.896;23.912;2022-12-20T15:15:40;97864.53;;;1.12;95.01
6615;BME280;3343;42.896;23.912;2022-12-20T15:18:11;97857.59;;;1.39;94.42
6615;BME280;3343;42.896;23.912;2022-12-20T15:20:39;97860.53;;;1.20;94.62
6615;BME280;3343;42.896;23.912;2022-12-20T15:23:12;97865.44;;;1.52;93.52
6615;BME280;3343;42.896;23.912;2022-12-20T15:25:42;97868.50;;;1.71;92.78
6615;BME280;3343;42.896;23.912;2022-12-20T15:28:14;97864.03;;;1.73;91.88
6615;BME280;3343;42.896;23.912;2022-12-20T15:30:42;97876.78;;;1.64;91.96
6615;BME280;3343;42.896;23.912;2022-12-20T15:33:16;97869.50;;;1.96;91.18
6615;BME280;3343;42.896;23.912;2022-12-20T15:35:43;97855.94;;;1.65;91.42
6615;BME280;3343;42.896;23.912;2022-12-20T15:38:13;97863.03;;;1.76;91.75
6615;BME280;3343;42.896;23.912;2022-12-20T15:40:45;97844.59;;;1.53;92.92
6615;BME280;3343;42.896;23.912;2022-12-20T15:43:13;97850.06;;;1.49;92.91
6615;BME280;3343;42.896;23.912;2022-12-20T15:45:42;97856.72;;;1.53;92.87
6615;BME280;3343;42.896;23.912;2022-12-20T15:48:14;97868.56;;;1.57;93.08
6615;BME280;3343;42.896;23.912;2022-12-20T15:50:43;97865.72;;;1.20;94.55
6615;BME280;3343;42.896;23.912;2022-12-20T15:53:13;97868.56;;;1.57;93.06
6615;BME280;3343;42.896;23.912;2022-12-20T15:55:40;97869.56;;;1.42;92.86
6615;BME280;3343;42.896;23.912;2022-12-20T15:58:09;97866.50;;;1.08;94.48
6615;BME280;3343;42.896;23.912;2022-12-20T16:00:38;97862.63;;;1.55;93.70
6615;BME280;3343;42.896;23.912;2022-12-20T16:03:12;97863.97;;;1.48;94.01
6615;BME280;3343;42.896;23.912;2022-12-20T16:05:40;97859.03;;;1.31;94.36
6615;BME280;3343;42.896;23.912;2022-12-20T16:08:07;97859.75;;;1.33;93.83
6615;BME280;3343;42.896;23.912;2022-12-20T16:10:33;97858.44;;;1.40;93.10
6615;BME280;3343;42.896;23.912;2022-12-20T16:13:00;97866.47;;;1.22;93.28
6615;BME280;3343;42.896;23.912;2022-12-20T16:15:29;97857.19;;;0.77;97.55
6615;BME280;3343;42.896;23.912;2022-12-20T16:17:56;97861.72;;;0.74;97.36
6615;BME280;3343;42.896;23.912;2022-12-20T16:20:22;97857.38;;;0.60;97.61
6615;BME280;3343;42.896;23.912;2022-12-20T16:22:52;97862.09;;;0.53;98.03
6615;BME280;3343;42.896;23.912;2022-12-20T16:25:27;97863.19;;;0.78;97.96
6615;BME280;3343;42.896;23.912;2022-12-20T16:27:55;97854.59;;;0.49;98.62
6615;BME280;3343;42.896;23.912;2022-12-20T16:30:22;97849.34;;;0.36;99.66
6615;BME280;3343;42.896;23.912;2022-12-20T16:32:50;97855.06;;;0.70;98.46
6615;BME280;3343;42.896;23.912;2022-12-20T16:35:26;97844.97;;;0.93;97.17
6615;BME280;3343;42.896;23.912;2022-12-20T16:37:54;97835.66;;;0.48;99.19
6615;BME280;3343;42.896;23.912;2022-12-20T16:40:22;97836.22;;;0.39;99.63
6615;BME280;3343;42.896;23.912;2022-12-20T16:42:49;97824.47;;;0.19;100.00
6615;BME280;3343;42.896;23.912;2022-12-20T16:45:18;97830.00;;;0.42;99.96
6615;BME280;3343;42.896;23.912;2022-12-20T16:47:46;97828.78;;;0.61;98.08
6615;BME280;3343;42.896;23.912;2022-12-20T16:50:15;97818.31;;;0.77;98.27
6615;BME280;3343;42.896;23.912;2022-12-20T16:52:43;97815.25;;;0.85;96.75
6615;BME280;3343;42.896;23.912;2022-12-20T16:55:14;97813.47;;;1.00;96.82
6615;BME280;3343;42.896;23.912;2022-12-20T16:57:42;97791.84;;;0.72;96.81
6615;BME280;3343;42.896;23.912;2022-12-20T17:00:15;97798.97;;;0.83;97.81